createdAt,value
2023-02-19T00:00:18.936Z,59.97
2023-02-19T00:02:45.569Z,60.29
2023-02-19T00:05:12.207Z,60.03
2023-02-19T00:07:38.907Z,60.15
2023-02-19T00:10:05.774Z,60.05
2023-02-19T00:12:32.403Z,60.51
2023-02-19T00:14:58.991Z,60.58
2023-02-19T00:17:25.596Z,60.42
2023-02-19T00:19:52.289Z,60.32
2023-02-19T00:22:18.905Z,60.27
2023-02-19T00:24:46.491Z,60.06
2023-02-19T00:27:14.418Z,59.96
2023-02-19T00:29:41.056Z,60.11
2023-02-19T00:32:07.750Z,60.59
2023-02-19T00:34:34.393Z,60.50
2023-02-19T00:37:01.017Z,60.16
2023-02-19T00:39:27.628Z,60.43
2023-02-19T00:41:54.247Z,59.98
2023-02-19T00:44:21.001Z,60.06
2023-02-19T00:46:47.588Z,60.31
2023-02-19T00:49:21.893Z,60.61
2023-02-19T00:51:49.018Z,61.11
2023-02-19T00:54:15.750Z,60.62
2023-02-19T00:56:42.438Z,60.62
2023-02-19T00:59:09.316Z,61.08
2023-02-19T01:01:36.035Z,60.72
2023-02-19T01:04:04.304Z,61.52
2023-02-19T01:06:32.875Z,61.60
2023-02-19T01:08:59.474Z,61.19
2023-02-19T01:11:26.109Z,61.11
2023-02-19T01:13:52.886Z,61.39
2023-02-19T01:16:20.986Z,61.45
2023-02-19T01:18:47.848Z,61.75
2023-02-19T01:21:19.359Z,61.11
2023-02-19T01:23:46.370Z,60.66
2023-02-19T01:26:15.142Z,61.31
2023-02-19T01:28:41.825Z,60.77
2023-02-19T01:31:10.920Z,60.87
2023-02-19T01:33:37.846Z,60.85
2023-02-19T01:36:04.934Z,61.17
2023-02-19T01:38:31.586Z,61.31
2023-02-19T01:41:02.295Z,61.27
2023-02-19T01:43:28.882Z,61.40
2023-02-19T01:45:55.528Z,60.85
2023-02-19T01:48:33.455Z,61.45
2023-02-19T01:51:06.196Z,61.34
2023-02-19T01:53:35.745Z,61.50
2023-02-19T01:56:02.410Z,61.11
2023-02-19T01:58:31.528Z,60.72
2023-02-19T02:00:58.684Z,61.09
2023-02-19T02:03:25.487Z,61.06
2023-02-19T02:06:04.647Z,60.86
2023-02-19T02:08:31.617Z,61.27
2023-02-19T02:10:58.360Z,61.63
2023-02-19T02:13:25.092Z,61.41
2023-02-19T02:16:11.421Z,61.37
2023-02-19T02:19:02.843Z,61.75
2023-02-19T02:22:03.175Z,61.55
2023-02-19T02:24:37.158Z,61.46
2023-02-19T02:27:06.555Z,61.32
2023-02-19T02:29:51.927Z,60.91
2023-02-19T02:32:24.776Z,62.12
2023-02-19T02:34:58.201Z,61.78
2023-02-19T02:37:25.771Z,61.38
2023-02-19T02:39:52.413Z,61.56
2023-02-19T02:42:19.054Z,61.25
2023-02-19T02:44:45.685Z,61.52
2023-02-19T02:47:12.294Z,62.01
2023-02-19T02:49:38.948Z,61.62
2023-02-19T02:52:05.654Z,61.69
2023-02-19T02:54:33.050Z,61.84
2023-02-19T02:56:59.662Z,62.02
2023-02-19T02:59:27.856Z,61.49
2023-02-19T03:02:09.393Z,61.09
2023-02-19T03:04:57.913Z,61.90
2023-02-19T03:07:24.581Z,62.07
2023-02-19T03:09:51.211Z,61.53
2023-02-19T03:12:17.912Z,61.86
2023-02-19T03:14:46.717Z,62.04
2023-02-19T03:17:26.169Z,62.21
2023-02-19T03:19:54.368Z,61.89
2023-02-19T03:22:24.668Z,61.66
2023-02-19T03:24:54.239Z,62.28
2023-02-19T03:27:20.880Z,62.28
2023-02-19T03:29:47.802Z,62.06
2023-02-19T03:32:21.122Z,62.41
2023-02-19T03:35:28.162Z,62.24
2023-02-19T03:38:00.589Z,62.68
2023-02-19T03:40:29.652Z,62.24
2023-02-19T03:43:21.370Z,62.66
2023-02-19T03:45:49.378Z,62.41
2023-02-19T03:48:15.957Z,62.04
2023-02-19T03:51:17.876Z,62.24
2023-02-19T03:53:56.084Z,62.04
2023-02-19T03:56:27.980Z,61.99
2023-02-19T03:59:02.055Z,61.43
2023-02-19T04:01:41.738Z,62.36
2023-02-19T04:04:12.973Z,61.82
2023-02-19T04:06:39.674Z,62.29
2023-02-19T04:09:07.497Z,62.07
2023-02-19T04:11:34.159Z,63.13
2023-02-19T04:14:29.904Z,62.85
2023-02-19T04:16:59.848Z,63.66
2023-02-19T04:19:26.485Z,63.90
2023-02-19T04:21:53.327Z,63.82
2023-02-19T04:24:23.351Z,63.39
2023-02-19T04:26:49.955Z,63.44
2023-02-19T04:29:16.578Z,63.03
2023-02-19T04:31:43.211Z,62.65
2023-02-19T04:34:09.893Z,62.47
2023-02-19T04:36:36.513Z,61.91
2023-02-19T04:39:03.118Z,62.07
2023-02-19T04:41:29.744Z,61.72
2023-02-19T04:43:56.449Z,61.29
2023-02-19T04:46:23.131Z,61.07
2023-02-19T04:48:49.803Z,61.04
2023-02-19T04:51:16.479Z,60.21
2023-02-19T04:53:43.125Z,60.53
2023-02-19T04:56:14.404Z,60.76
2023-02-19T04:58:41.469Z,60.65
2023-02-19T05:01:08.986Z,60.33
2023-02-19T05:03:36.101Z,60.36
2023-02-19T05:06:06.922Z,60.53
2023-02-19T05:08:33.570Z,60.65
2023-02-19T05:11:00.765Z,60.43
2023-02-19T05:13:27.440Z,60.85
2023-02-19T05:16:01.434Z,60.91
2023-02-19T05:18:28.245Z,60.86
2023-02-19T05:20:54.867Z,60.97
2023-02-19T05:23:21.484Z,61.16
2023-02-19T05:25:48.638Z,61.56
2023-02-19T05:28:15.325Z,61.43
2023-02-19T05:30:41.937Z,61.63
2023-02-19T05:33:08.577Z,61.77
2023-02-19T05:35:40.164Z,61.10
2023-02-19T05:38:06.846Z,62.03
2023-02-19T05:40:33.768Z,61.97
2023-02-19T05:43:00.354Z,62.26
2023-02-19T05:45:26.993Z,62.12
2023-02-19T05:47:53.659Z,61.88
2023-02-19T05:50:20.352Z,61.79
2023-02-19T05:52:46.996Z,62.14
2023-02-19T05:55:13.668Z,63.40
2023-02-19T05:57:43.961Z,62.11
2023-02-19T06:00:20.225Z,62.30
2023-02-19T06:02:46.909Z,62.25
2023-02-19T06:05:13.972Z,62.23
2023-02-19T06:07:40.613Z,61.65
2023-02-19T06:10:07.801Z,61.93
2023-02-19T06:12:34.400Z,61.88
2023-02-19T06:15:00.989Z,62.68
2023-02-19T06:17:27.604Z,62.38
2023-02-19T06:19:54.199Z,62.25
2023-02-19T06:22:20.900Z,61.84
2023-02-19T06:24:47.871Z,61.94
2023-02-19T06:27:14.534Z,61.64
2023-02-19T06:29:41.134Z,62.14
2023-02-19T06:32:07.915Z,62.07
2023-02-19T06:34:34.789Z,62.08
2023-02-19T06:37:01.432Z,61.60
2023-02-19T06:39:28.042Z,61.65
2023-02-19T06:41:57.860Z,61.35
2023-02-19T06:44:24.740Z,60.88
2023-02-19T06:46:51.558Z,61.14
2023-02-19T06:49:18.160Z,60.98
2023-02-19T06:51:44.808Z,60.71
2023-02-19T06:54:11.483Z,60.64
2023-02-19T06:56:38.738Z,60.63
2023-02-19T06:59:07.454Z,60.64
2023-02-19T07:01:34.923Z,60.33
2023-02-19T07:04:01.759Z,60.32
2023-02-19T07:06:28.475Z,60.14
2023-02-19T07:08:55.731Z,60.10
2023-02-19T07:11:22.606Z,59.98
2023-02-19T07:14:03.673Z,59.36
2023-02-19T07:16:30.480Z,60.53
2023-02-19T07:18:57.894Z,60.27
2023-02-19T07:21:24.574Z,59.74
2023-02-19T07:23:51.211Z,58.79
2023-02-19T07:26:18.564Z,58.55
2023-02-19T07:28:45.987Z,58.30
2023-02-19T07:31:13.091Z,58.72
2023-02-19T07:33:40.002Z,58.29
2023-02-19T07:36:07.354Z,58.54
2023-02-19T07:38:34.024Z,58.40
2023-02-19T07:41:01.782Z,57.78
2023-02-19T07:43:30.193Z,58.22
2023-02-19T07:45:56.880Z,59.13
2023-02-19T07:48:23.710Z,59.08
2023-02-19T07:50:53.516Z,58.55
2023-02-19T07:53:20.306Z,59.17
2023-02-19T07:55:46.940Z,58.42
2023-02-19T07:58:13.572Z,58.38
2023-02-19T08:00:40.253Z,57.32
2023-02-19T08:03:06.886Z,57.77
2023-02-19T08:05:34.780Z,58.96
2023-02-19T08:08:01.449Z,58.84
2023-02-19T08:10:28.194Z,58.48
2023-02-19T08:13:03.741Z,56.63
2023-02-19T08:15:30.419Z,58.00
2023-02-19T08:17:57.122Z,54.26
2023-02-19T08:20:23.763Z,56.09
2023-02-19T08:22:50.548Z,55.39
2023-02-19T08:25:17.168Z,55.18
2023-02-19T08:27:43.768Z,54.32
2023-02-19T08:30:10.839Z,55.66
2023-02-19T08:32:37.561Z,53.81
2023-02-19T08:35:04.456Z,53.37
2023-02-19T08:37:31.231Z,52.58
2023-02-19T08:39:57.847Z,51.97
2023-02-19T08:42:24.499Z,51.54
2023-02-19T08:44:51.213Z,51.24
2023-02-19T08:47:17.950Z,50.64
2023-02-19T08:49:44.620Z,50.48
2023-02-19T08:52:11.257Z,49.97
2023-02-19T08:54:37.903Z,51.02
2023-02-19T08:57:04.569Z,50.84
2023-02-19T08:59:31.722Z,50.63
2023-02-19T09:01:58.923Z,51.04
2023-02-19T09:04:25.578Z,51.39
2023-02-19T09:06:52.264Z,51.10
2023-02-19T09:09:18.864Z,51.61
2023-02-19T09:11:47.386Z,52.01
2023-02-19T09:14:15.120Z,51.83
2023-02-19T09:16:41.837Z,52.57
2023-02-19T09:19:08.458Z,52.70
2023-02-19T09:21:35.165Z,52.28
2023-02-19T09:24:01.865Z,51.59
2023-02-19T09:26:28.505Z,51.14
2023-02-19T09:28:55.163Z,50.26
2023-02-19T09:31:21.904Z,49.74
2023-02-19T09:33:48.664Z,50.40
2023-02-19T09:36:15.680Z,49.00
2023-02-19T09:38:42.518Z,49.75
2023-02-19T09:41:33.384Z,49.48
2023-02-19T09:44:00.593Z,49.32
2023-02-19T09:46:49.072Z,49.82
2023-02-19T09:49:18.537Z,49.86
2023-02-19T09:51:53.788Z,50.13
2023-02-19T09:54:29.439Z,50.39
2023-02-19T09:56:56.677Z,50.22
2023-02-19T09:59:28.903Z,50.28
2023-02-19T10:02:21.191Z,50.87
2023-02-19T10:04:48.395Z,50.76
2023-02-19T10:07:39.121Z,50.24
2023-02-19T10:10:14.834Z,49.88
2023-02-19T10:12:45.885Z,49.81
2023-02-19T10:15:26.679Z,49.20
2023-02-19T10:17:53.301Z,48.77
2023-02-19T10:20:20.941Z,48.69
2023-02-19T10:22:47.584Z,48.83
2023-02-19T10:25:15.108Z,49.20
2023-02-19T10:27:41.741Z,49.13
2023-02-19T10:30:20.032Z,48.26
2023-02-19T10:33:09.780Z,47.91
2023-02-19T10:35:37.807Z,47.63
2023-02-19T10:38:05.013Z,47.15
2023-02-19T10:40:31.687Z,46.83
2023-02-19T10:43:00.944Z,47.08
2023-02-19T10:45:40.478Z,46.70
2023-02-19T10:48:07.224Z,47.00
2023-02-19T10:50:36.317Z,47.15
2023-02-19T10:53:03.014Z,47.25
2023-02-19T10:55:36.029Z,47.14
2023-02-19T10:58:24.618Z,47.26
2023-02-19T11:01:22.772Z,46.83
2023-02-19T11:03:53.485Z,47.25
2023-02-19T11:06:21.235Z,47.27
2023-02-19T11:08:58.501Z,46.51
2023-02-19T11:11:37.958Z,47.61
2023-02-19T11:14:13.142Z,46.32
2023-02-19T11:16:47.064Z,46.41
2023-02-19T11:19:42.533Z,45.67
2023-02-19T11:22:30.714Z,45.27
2023-02-19T11:24:59.587Z,44.78
2023-02-19T11:27:26.246Z,44.17
2023-02-19T11:29:52.840Z,43.82
2023-02-19T11:32:24.484Z,43.83
2023-02-19T11:34:51.273Z,44.64
2023-02-19T11:37:19.350Z,43.92
2023-02-19T11:39:50.146Z,44.04
2023-02-19T11:42:44.820Z,43.46
2023-02-19T11:45:20.352Z,43.21
2023-02-19T11:47:49.972Z,43.30
2023-02-19T11:50:24.264Z,43.33
2023-02-19T11:53:14.734Z,42.92
2023-02-19T11:56:03.111Z,42.35
2023-02-19T11:59:00.388Z,42.38
2023-02-19T12:01:30.970Z,42.49
2023-02-19T12:04:16.318Z,42.82
2023-02-19T12:06:55.485Z,42.95
2023-02-19T12:09:28.121Z,43.00
2023-02-19T12:11:58.714Z,43.29
2023-02-19T12:14:43.531Z,42.63
2023-02-19T12:17:40.809Z,42.90
2023-02-19T12:20:16.305Z,43.35
2023-02-19T12:23:08.906Z,43.15
2023-02-19T12:26:14.218Z,43.85
2023-02-19T12:29:02.472Z,43.51
2023-02-19T12:31:42.856Z,44.36
2023-02-19T12:34:30.199Z,44.72
2023-02-19T12:37:11.757Z,43.49
2023-02-19T12:39:50.369Z,43.52
2023-02-19T12:43:05.087Z,43.95
2023-02-19T12:45:38.443Z,44.11
2023-02-19T12:48:13.989Z,43.62
2023-02-19T12:50:41.103Z,43.62
2023-02-19T12:53:43.285Z,43.02
2023-02-19T12:56:15.906Z,42.59
2023-02-19T12:58:52.162Z,42.56
2023-02-19T13:01:24.123Z,42.78
2023-02-19T13:04:13.914Z,41.34
2023-02-19T13:06:43.155Z,41.65
2023-02-19T13:09:16.115Z,41.91
2023-02-19T13:11:51.010Z,41.83
2023-02-19T13:14:26.936Z,41.63
2023-02-19T13:16:57.767Z,41.35
2023-02-19T13:19:24.458Z,41.14
2023-02-19T13:22:02.074Z,41.56
2023-02-19T13:24:33.861Z,41.71
2023-02-19T13:27:19.105Z,41.94
2023-02-19T13:29:48.526Z,42.55
2023-02-19T13:32:33.859Z,42.60
2023-02-19T13:35:15.785Z,41.91
2023-02-19T13:37:42.429Z,42.14
2023-02-19T13:40:31.596Z,42.75
2023-02-19T13:42:59.788Z,41.38
2023-02-19T13:45:38.348Z,42.04
2023-02-19T13:48:24.087Z,42.34
2023-02-19T13:50:51.386Z,42.33
2023-02-19T13:53:42.863Z,41.35
2023-02-19T13:56:31.377Z,43.24
2023-02-19T13:59:23.677Z,42.24
2023-02-19T14:01:50.304Z,41.68
2023-02-19T14:04:23.401Z,41.69
2023-02-19T14:07:05.236Z,41.51
2023-02-19T14:09:34.884Z,41.79
2023-02-19T14:12:02.263Z,42.20
2023-02-19T14:14:44.231Z,41.82
2023-02-19T14:17:10.774Z,41.66
2023-02-19T14:19:50.581Z,41.51
2023-02-19T14:22:45.098Z,41.39
2023-02-19T14:25:34.879Z,41.39
2023-02-19T14:28:10.183Z,42.51
2023-02-19T14:30:48.527Z,40.85
2023-02-19T14:33:16.296Z,41.12
2023-02-19T14:35:45.024Z,41.32
2023-02-19T14:38:26.622Z,41.33
2023-02-19T14:40:53.292Z,41.81
2023-02-19T14:43:20.944Z,41.87
2023-02-19T14:45:49.658Z,41.97
2023-02-19T14:48:19.672Z,42.71
2023-02-19T14:50:47.952Z,42.91
2023-02-19T14:53:14.594Z,43.27
2023-02-19T14:55:41.236Z,43.61
2023-02-19T14:58:12.462Z,43.71
2023-02-19T15:00:40.552Z,43.83
2023-02-19T15:03:07.389Z,43.67
2023-02-19T15:05:35.352Z,43.63
2023-02-19T15:08:03.794Z,43.95
2023-02-19T15:10:31.069Z,43.82
2023-02-19T15:13:01.497Z,43.73
2023-02-19T15:15:29.274Z,44.20
2023-02-19T15:17:56.516Z,44.35
2023-02-19T15:20:24.278Z,44.25
2023-02-19T15:22:51.314Z,45.26
2023-02-19T15:25:19.847Z,43.95
2023-02-19T15:27:46.752Z,43.49
2023-02-19T15:30:24.595Z,43.49
2023-02-19T15:32:58.576Z,43.51
2023-02-19T15:35:28.528Z,43.49
2023-02-19T15:37:55.265Z,44.61
2023-02-19T15:40:28.414Z,43.52
2023-02-19T15:42:55.075Z,43.42
2023-02-19T15:45:52.153Z,43.85
2023-02-19T15:48:20.909Z,43.96
2023-02-19T15:50:49.181Z,43.86
2023-02-19T15:53:17.617Z,43.26
2023-02-19T15:56:17.323Z,44.83
2023-02-19T15:58:47.842Z,44.24
2023-02-19T16:01:24.427Z,42.82
2023-02-19T16:03:51.496Z,43.54
2023-02-19T16:06:18.213Z,45.34
2023-02-19T16:08:46.400Z,43.60
2023-02-19T16:11:38.848Z,43.33
2023-02-19T16:14:25.257Z,43.52
2023-02-19T16:16:55.087Z,44.06
2023-02-19T16:19:28.235Z,42.30
2023-02-19T16:21:55.332Z,42.57
2023-02-19T16:24:29.152Z,43.35
2023-02-19T16:26:55.765Z,42.97
2023-02-19T16:29:32.265Z,43.45
2023-02-19T16:32:03.911Z,43.17
2023-02-19T16:34:44.077Z,42.95
2023-02-19T16:37:40.862Z,43.17
2023-02-19T16:40:07.554Z,43.62
2023-02-19T16:42:34.845Z,44.41
2023-02-19T16:45:01.514Z,45.17
2023-02-19T16:47:46.436Z,45.83
2023-02-19T16:50:23.129Z,46.07
2023-02-19T16:53:00.664Z,46.63
2023-02-19T16:55:27.706Z,46.66
2023-02-19T16:57:54.500Z,47.46
2023-02-19T17:00:25.556Z,47.82
2023-02-19T17:02:53.924Z,48.08
2023-02-19T17:05:20.600Z,48.22
2023-02-19T17:07:47.264Z,48.12
2023-02-19T17:10:22.785Z,48.47
2023-02-19T17:12:50.092Z,48.88
2023-02-19T17:15:16.701Z,48.64
2023-02-19T17:17:43.357Z,49.90
2023-02-19T17:20:15.630Z,49.26
2023-02-19T17:22:42.342Z,48.85
2023-02-19T17:25:09.019Z,49.32
2023-02-19T17:27:35.813Z,49.14
2023-02-19T17:30:04.226Z,49.13
2023-02-19T17:32:32.350Z,49.37
2023-02-19T17:35:00.219Z,49.20
2023-02-19T17:37:28.256Z,49.28
2023-02-19T17:39:54.905Z,48.78
2023-02-19T17:42:21.622Z,49.74
2023-02-19T17:44:48.357Z,49.26
2023-02-19T17:47:14.957Z,49.66
2023-02-19T17:49:41.635Z,49.91
2023-02-19T17:52:08.235Z,49.56
2023-02-19T17:54:34.898Z,49.60
2023-02-19T17:57:01.564Z,49.53
2023-02-19T17:59:28.178Z,49.80
2023-02-19T18:01:54.796Z,49.98
2023-02-19T18:04:21.545Z,49.93
2023-02-19T18:06:48.210Z,50.16
2023-02-19T18:09:14.817Z,50.28
2023-02-19T18:11:45.271Z,49.68
2023-02-19T18:14:11.926Z,50.63
2023-02-19T18:16:44.049Z,50.71
2023-02-19T18:19:10.724Z,50.26
2023-02-19T18:21:37.404Z,50.00
2023-02-19T18:24:04.466Z,50.34
2023-02-19T18:26:31.161Z,49.72
2023-02-19T18:28:59.697Z,49.72
2023-02-19T18:31:26.426Z,49.50
2023-02-19T18:33:54.314Z,49.42
2023-02-19T18:36:22.445Z,49.87
2023-02-19T18:38:50.325Z,49.87
2023-02-19T18:41:19.764Z,50.04
2023-02-19T18:43:47.222Z,49.93
2023-02-19T18:46:14.439Z,49.68
2023-02-19T18:48:42.546Z,48.94
2023-02-19T18:51:10.088Z,48.73
2023-02-19T18:53:38.348Z,48.40
2023-02-19T18:56:06.486Z,47.98
2023-02-19T18:58:33.103Z,48.19
2023-02-19T19:00:59.787Z,47.90
2023-02-19T19:03:26.558Z,47.80
2023-02-19T19:05:53.289Z,47.56
2023-02-19T19:08:20.071Z,47.38
2023-02-19T19:10:46.719Z,47.20
2023-02-19T19:13:14.339Z,47.66
2023-02-19T19:15:40.990Z,46.98
2023-02-19T19:18:08.834Z,46.65
2023-02-19T19:20:36.320Z,47.18
2023-02-19T19:23:02.938Z,46.47
2023-02-19T19:25:29.576Z,46.39
2023-02-19T19:27:56.220Z,46.49
2023-02-19T19:30:22.985Z,46.33
2023-02-19T19:32:50.044Z,46.61
2023-02-19T19:35:17.528Z,47.15
2023-02-19T19:37:44.172Z,47.19
2023-02-19T19:40:11.425Z,48.15
2023-02-19T19:42:38.378Z,47.70
2023-02-19T19:45:06.695Z,48.09
2023-02-19T19:47:34.520Z,47.57
2023-02-19T19:50:02.410Z,47.73
2023-02-19T19:52:29.011Z,48.30
2023-02-19T19:54:55.808Z,47.93
2023-02-19T19:57:24.368Z,48.52
2023-02-19T19:59:52.501Z,48.48
2023-02-19T20:02:20.475Z,48.56
2023-02-19T20:04:47.135Z,48.60
2023-02-19T20:07:14.384Z,48.58
2023-02-19T20:09:42.803Z,48.56
2023-02-19T20:12:10.420Z,49.55
2023-02-19T20:14:38.371Z,49.28
2023-02-19T20:17:06.475Z,49.26
2023-02-19T20:19:34.422Z,49.00
2023-02-19T20:22:01.074Z,49.22
2023-02-19T20:24:27.915Z,49.21
2023-02-19T20:26:55.855Z,49.40
2023-02-19T20:29:22.527Z,49.91
2023-02-19T20:31:49.659Z,50.85
2023-02-19T20:34:16.445Z,50.31
2023-02-19T20:36:47.069Z,50.62
2023-02-19T20:39:14.874Z,49.80
2023-02-19T20:41:48.057Z,50.02
2023-02-19T20:44:14.706Z,50.24
2023-02-19T20:46:44.947Z,49.85
2023-02-19T20:49:16.552Z,49.97
2023-02-19T20:51:50.443Z,50.12
2023-02-19T20:54:18.353Z,50.11
2023-02-19T20:56:48.629Z,50.11
2023-02-19T20:59:16.097Z,50.26
2023-02-19T21:01:42.815Z,50.00
2023-02-19T21:04:09.480Z,50.02
2023-02-19T21:06:36.119Z,49.65
2023-02-19T21:09:03.213Z,49.66
2023-02-19T21:11:29.826Z,49.20
2023-02-19T21:13:56.444Z,49.18
2023-02-19T21:16:23.271Z,48.88
2023-02-19T21:18:49.946Z,48.87
2023-02-19T21:21:20.326Z,48.52
2023-02-19T21:23:47.556Z,48.37
2023-02-19T21:26:14.293Z,48.81
2023-02-19T21:28:41.063Z,48.78
2023-02-19T21:31:07.871Z,49.35
2023-02-19T21:33:34.540Z,49.29
2023-02-19T21:36:04.724Z,49.24
2023-02-19T21:38:32.680Z,49.89
2023-02-19T21:40:59.398Z,50.06
2023-02-19T21:43:26.542Z,50.60
2023-02-19T21:45:53.197Z,49.84
2023-02-19T21:48:19.812Z,50.17
2023-02-19T21:50:46.452Z,50.34
2023-02-19T21:53:13.439Z,49.90
2023-02-19T21:55:42.931Z,50.81
2023-02-19T21:58:16.591Z,50.06
2023-02-19T22:00:43.357Z,50.25
2023-02-19T22:03:15.292Z,49.63
2023-02-19T22:05:41.930Z,49.58
2023-02-19T22:08:08.573Z,50.05
2023-02-19T22:10:35.188Z,50.10
2023-02-19T22:13:01.781Z,49.93
2023-02-19T22:15:28.423Z,50.98
2023-02-19T22:17:55.167Z,49.44
2023-02-19T22:20:21.837Z,49.85
2023-02-19T22:22:48.621Z,49.10
2023-02-19T22:25:15.339Z,49.26
2023-02-19T22:27:41.997Z,49.49
2023-02-19T22:30:09.098Z,49.49
2023-02-19T22:32:35.888Z,50.51
2023-02-19T22:35:02.692Z,50.38
2023-02-19T22:37:29.373Z,50.19
2023-02-19T22:39:56.047Z,49.82
2023-02-19T22:42:22.665Z,49.05
2023-02-19T22:44:49.292Z,49.63
2023-02-19T22:47:17.716Z,50.01
2023-02-19T22:49:44.314Z,51.74
2023-02-19T22:52:10.946Z,51.96
2023-02-19T22:54:37.643Z,52.02
2023-02-19T22:57:04.276Z,51.14
2023-02-19T22:59:31.018Z,51.50
2023-02-19T23:01:57.726Z,50.48
2023-02-19T23:04:24.987Z,49.99
2023-02-19T23:06:51.702Z,52.16
2023-02-19T23:09:20.752Z,51.52
2023-02-19T23:11:47.396Z,51.88
2023-02-19T23:14:15.837Z,51.27
2023-02-19T23:16:42.573Z,52.11
2023-02-19T23:19:09.783Z,52.12
2023-02-19T23:21:36.414Z,51.88
2023-02-19T23:24:03.252Z,51.07
2023-02-19T23:26:29.862Z,51.26
2023-02-19T23:28:56.483Z,50.83
2023-02-19T23:31:23.337Z,50.84
2023-02-19T23:33:50.003Z,50.57
2023-02-19T23:36:16.591Z,49.08
2023-02-19T23:38:46.368Z,50.77
2023-02-19T23:41:14.201Z,50.42
2023-02-19T23:43:40.881Z,51.62
2023-02-19T23:46:07.556Z,50.93
2023-02-19T23:48:34.175Z,51.11
2023-02-19T23:51:00.780Z,50.66
2023-02-19T23:53:27.451Z,51.16
2023-02-19T23:55:54.239Z,50.81
2023-02-19T23:58:21.004Z,50.42
